メインページ
METAR-TAF:

METAR-TAF

空港 :

秋田空港

秋田, 日本

緯度: 39-37N, 経度: 140-13E, 海抜: 93m

現時点の気象観測

当レポートは22分前の07:00(UTC)に作成
変向風 2kt
気温 28°C
湿度 51%
気圧 1011 hPa
視程10km以上
高度2500ftの雲はほとんどない
千切れ雲あり

METAR: RJSK 200700Z VRB02KT 9999 FEW025 BKN/// 28/17 Q1011

時間: 16:22 (07:22 UTC)

予報

当レポートは2時間15分前の05:07(UTC)に作成
予報は20日の 06時(UTC)から 21日の 12時(UTC)まで有効
西の風 4kt
視程10km以上
高度3000ftの雲はほとんどない
20日の 09時(UTC)から 20日の 11時(UTC)まで徐々に
南東の風 7kt

TAF: RJSK 200507Z 2006/2112 28004KT 9999 FEW030 BECMG 2009/2011 13007KT

4,000以上の空港の気象観測と天気予報(METAR報とTAF報)

利用可能な観測所は地図上に黄色い丸と赤い丸で示す。

丸の上にカーソルを重ねると観測所名を参照できる。

次にクリックすると気象観測と天気予報を参照できる。

マップの切り替え:黒色「×」印の緑ボタンをクリックして拡大、「-」印の緑ボタンをクリックして縮小、緑色の三角印をクリックして隣りの地図に切り替え


METAR-TAF: